KCLS

Chehalis-Centralia Airport

Chehalis, Washington, USA
METAR KCLS 182335Z AUTO VRB05G11KT 10SM CLR 29/13 A3011 RMK AO2
Observed Flight Rules
Aug-18 @ 23:35 UTC (11 minutes ago) Visual Flight Rules
Wind Visibility Clouds
Variable at 5 knots
 Gusting to 11 knots
10 miles
  • Clear skies
Temperatures Readings
Current 29°C / 84°F
Dewpoint 13°C / 55°F
Humidity 37%
Altimeter 30.11" Hg
Pressure 1020 hPa
Elevation 54
METAR KCLS 182335Z AUTO VRB05G11KT 10SM CLR 29/13 A3011 RMK AO2
Observed Flight Rules
Aug-18 @ 23:35 UTC
(11 minutes ago)
VFR
Wind Visibility
Variable at 5 knots
 Gusting to 11 knots
10 miles
Clouds
  • Clear skies
Temperature Dewpoint
29°C / 84°F 13°C / 55°F
Humidity Altimeter Pressure
37% 30.11" Hg 1020 hPa